International Virtual Aviation Organisation

Eastern Europe and Northern Asia MCD

 

Карточка аэропорта UUEE

Внимание!
Информация на этой странице в стадии наполнения.
Если вы не увидели какой-то информации, или заметили неточность - пожалуйста сообщите нам!
Спасибо!
Команда RU-STAFF
Название аэропортаШереметьево
Название аэропорта (англ.)Sheremetyevo
Превышение630 ft. (192 m.)
Координаты55°58.416', 37°24.75'
Высота перехода10000 ft
Эшелон переходаFL110
Коды ответчика1501-1537
Зона ОрВДМосква РПИ (UUWV)
Данные METARUUEE 201000Z 09009MPS CAVOK 10/M03 Q1019 R06C/CLRD62 R06L/CLRD62 NOSIG
Проноз погоды (TAF)NODATA
NOTAMshow/hide NOTAM
AWOS   TABLE

Информация о ВПП

ВПП Длина ВПП (м.) Покрытие Курс ВПП Частота ILS
06R3700Железобетон64109.1
24L3700Железобетон244110.5
06C3550Бетон64108.1
24C3550Бетон244111.3
06L3200Бетон64108.75
24R3200Бетон244109.35

Диспетчерские позиции

Позывной Наименование органа УВД Частота
UUEE_D_APPШереметьево-Прилет118.100
UUEE_TWRШереметьево-Вышка118.700
UUEE_GNDШереметьево-Руление119.000
UUEE_DEPШереметьево-Вылет120.675
UUEE_TWRШереметьево-Вышка120.700
UUEE_DELШереметьево-Деливери120.875
UUEE_GNDШереметьево-Руление121.800
UUEE_APPШереметьево-Прилет122.700
UUEE_GNDШереметьево-Руление122.900
UUEE_DELШереметьево-Деливери128.600
UUEE_TWRШереметьево-Вышка131.500



Спутниковое изображение